createdAt,value
2023-05-14T00:00:07.577Z,85.80
2023-05-14T00:02:35.278Z,86.27
2023-05-14T00:05:03.084Z,86.51
2023-05-14T00:07:31.921Z,86.66
2023-05-14T00:10:00.250Z,87.15
2023-05-14T00:12:28.186Z,87.39
2023-05-14T00:14:57.752Z,87.46
2023-05-14T00:17:25.392Z,87.47
2023-05-14T00:19:53.104Z,87.56
2023-05-14T00:22:20.866Z,87.69
2023-05-14T00:24:48.552Z,87.81
2023-05-14T00:27:16.205Z,88.37
2023-05-14T00:29:45.637Z,88.40
2023-05-14T00:32:14.775Z,88.64
2023-05-14T00:34:42.377Z,89.60
2023-05-14T00:37:10.090Z,89.66
2023-05-14T00:39:37.907Z,90.15
2023-05-14T00:42:05.868Z,90.40
2023-05-14T00:44:37.042Z,90.27
2023-05-14T00:47:06.278Z,90.82
2023-05-14T00:49:35.617Z,90.86
2023-05-14T00:52:03.693Z,90.59
2023-05-14T00:54:31.772Z,90.97
2023-05-14T00:57:00.978Z,91.01
2023-05-14T00:59:31.896Z,90.75
2023-05-14T01:02:00.400Z,91.25
2023-05-14T01:04:39.586Z,91.27
2023-05-14T01:07:13.755Z,91.56
2023-05-14T01:09:50.629Z,91.96
2023-05-14T01:12:22.562Z,92.55
2023-05-14T01:14:58.405Z,92.63
2023-05-14T01:17:29.426Z,92.66
2023-05-14T01:19:59.458Z,93.18
2023-05-14T01:22:28.705Z,93.59
2023-05-14T01:24:57.001Z,93.29
2023-05-14T01:27:30.777Z,93.17
2023-05-14T01:30:08.119Z,93.56
2023-05-14T01:32:37.055Z,93.05
2023-05-14T01:35:07.244Z,93.33
2023-05-14T01:37:39.409Z,93.94
2023-05-14T01:40:09.417Z,93.96
2023-05-14T01:42:37.756Z,94.06
2023-05-14T01:45:06.155Z,94.53
2023-05-14T01:47:34.014Z,94.81
2023-05-14T01:50:02.157Z,94.60
2023-05-14T01:52:30.131Z,94.96
2023-05-14T01:55:00.020Z,95.42
2023-05-14T01:57:28.143Z,95.17
2023-05-14T01:59:55.848Z,95.37
2023-05-14T02:02:23.888Z,95.54
2023-05-14T02:04:51.685Z,95.41
2023-05-14T02:07:19.745Z,95.87
2023-05-14T02:09:47.654Z,95.65
2023-05-14T02:12:17.116Z,95.54
2023-05-14T02:14:45.041Z,95.72
2023-05-14T02:17:15.898Z,95.45
2023-05-14T02:19:43.738Z,95.29
2023-05-14T02:22:16.733Z,95.45
2023-05-14T02:24:44.564Z,95.23
2023-05-14T02:27:15.543Z,95.54
2023-05-14T02:29:44.788Z,95.51
2023-05-14T02:32:12.572Z,95.44
2023-05-14T02:34:40.817Z,95.86
2023-05-14T02:37:09.413Z,96.05
2023-05-14T02:39:37.320Z,96.60
2023-05-14T02:42:05.463Z,96.63
2023-05-14T02:44:33.284Z,96.75
2023-05-14T02:47:03.206Z,96.76
2023-05-14T02:49:31.307Z,96.55
2023-05-14T02:52:00.835Z,96.32
2023-05-14T02:54:28.649Z,96.05
2023-05-14T02:56:56.437Z,95.88
2023-05-14T02:59:25.596Z,95.97
2023-05-14T03:01:53.823Z,95.73
2023-05-14T03:04:25.867Z,95.61
2023-05-14T03:06:53.785Z,95.72
2023-05-14T03:09:21.516Z,95.81
2023-05-14T03:11:49.362Z,95.65
2023-05-14T03:14:17.609Z,95.28
2023-05-14T03:16:46.104Z,94.93
2023-05-14T03:19:13.998Z,94.79
2023-05-14T03:21:43.222Z,95.01
2023-05-14T03:24:11.068Z,95.23
2023-05-14T03:26:39.255Z,95.29
2023-05-14T03:29:09.842Z,95.02
2023-05-14T03:31:37.690Z,94.66
2023-05-14T03:34:05.920Z,94.73
2023-05-14T03:36:34.197Z,95.07
2023-05-14T03:39:03.393Z,94.92
2023-05-14T03:41:31.154Z,94.84
2023-05-14T03:43:58.830Z,94.78
2023-05-14T03:46:26.417Z,94.81
2023-05-14T03:48:54.479Z,94.73
2023-05-14T03:51:22.269Z,94.80
2023-05-14T03:53:49.957Z,94.54
2023-05-14T03:56:18.906Z,94.81
2023-05-14T03:58:47.236Z,94.87
2023-05-14T04:01:16.033Z,94.71
2023-05-14T04:03:43.924Z,94.69
2023-05-14T04:06:11.988Z,94.75
2023-05-14T04:08:39.587Z,94.27
2023-05-14T04:11:07.172Z,94.16
2023-05-14T04:13:36.654Z,94.44
2023-05-14T04:16:04.588Z,94.20
2023-05-14T04:18:35.261Z,94.22
2023-05-14T04:21:02.977Z,94.36
2023-05-14T04:23:31.868Z,94.64
2023-05-14T04:25:59.718Z,95.22
2023-05-14T04:28:27.424Z,95.06
2023-05-14T04:30:56.387Z,94.29
2023-05-14T04:33:24.134Z,94.66
2023-05-14T04:35:52.164Z,94.44
2023-05-14T04:38:19.753Z,94.27
2023-05-14T04:40:47.323Z,94.25
2023-05-14T04:43:16.642Z,95.11
2023-05-14T04:45:46.353Z,95.00
2023-05-14T04:48:15.382Z,94.93
2023-05-14T04:50:44.322Z,94.81
2023-05-14T04:53:18.118Z,95.27
2023-05-14T04:55:49.080Z,95.13
2023-05-14T04:58:17.175Z,95.28
2023-05-14T05:00:45.366Z,95.21
2023-05-14T05:03:13.144Z,94.96
2023-05-14T05:05:42.372Z,95.68
2023-05-14T05:08:11.427Z,95.29
2023-05-14T05:10:39.005Z,95.29
2023-05-14T05:13:06.587Z,95.30
2023-05-14T05:15:35.221Z,95.39
2023-05-14T05:18:03.262Z,95.45
2023-05-14T05:20:31.122Z,95.47
2023-05-14T05:23:00.431Z,95.63
2023-05-14T05:25:32.472Z,95.83
2023-05-14T05:28:00.213Z,95.65
2023-05-14T05:30:28.241Z,95.70
2023-05-14T05:32:57.026Z,95.72
2023-05-14T05:35:25.910Z,95.64
2023-05-14T05:37:54.359Z,95.18
2023-05-14T05:40:23.749Z,95.02
2023-05-14T05:42:51.598Z,94.84
2023-05-14T05:45:19.313Z,94.33
2023-05-14T05:47:47.087Z,94.05
2023-05-14T05:50:15.548Z,93.36
2023-05-14T05:52:44.253Z,93.00
2023-05-14T05:55:12.604Z,92.93
2023-05-14T05:57:41.682Z,93.06
2023-05-14T06:00:14.256Z,93.10
2023-05-14T06:02:42.170Z,93.04
2023-05-14T06:05:12.681Z,92.94
2023-05-14T06:07:42.686Z,93.36
2023-05-14T06:10:11.204Z,93.28
2023-05-14T06:12:39.196Z,93.13
2023-05-14T06:15:09.329Z,93.02
2023-05-14T06:17:37.192Z,93.30
2023-05-14T06:20:08.017Z,93.45
2023-05-14T06:22:35.763Z,93.48
2023-05-14T06:25:03.333Z,92.93
2023-05-14T06:27:31.023Z,92.56
2023-05-14T06:41:58.197Z,90.21
2023-05-14T06:44:25.836Z,90.02
2023-05-14T06:46:54.859Z,90.17
2023-05-14T06:49:22.479Z,89.68
2023-05-14T06:51:50.180Z,89.42
2023-05-14T06:54:17.793Z,89.08
2023-05-14T06:56:46.086Z,89.04
2023-05-14T06:59:13.752Z,89.14
2023-05-14T07:01:41.506Z,88.91
2023-05-14T07:04:10.803Z,88.42
2023-05-14T07:06:38.579Z,88.39
2023-05-14T07:09:06.842Z,87.79
2023-05-14T07:11:34.695Z,86.52
2023-05-14T07:14:02.295Z,86.03
2023-05-14T07:16:29.926Z,85.46
2023-05-14T07:18:57.624Z,84.95
2023-05-14T07:21:26.931Z,85.16
2023-05-14T07:23:54.666Z,85.27
2023-05-14T07:26:24.482Z,85.49
2023-05-14T07:28:52.236Z,85.08
2023-05-14T07:31:20.022Z,84.70
2023-05-14T07:33:47.663Z,84.10
2023-05-14T07:36:15.603Z,83.87
2023-05-14T07:38:44.631Z,83.40
2023-05-14T07:41:12.434Z,82.52
2023-05-14T07:43:40.540Z,81.23
2023-05-14T07:46:08.464Z,79.87
2023-05-14T07:48:36.268Z,78.97
2023-05-14T07:51:03.991Z,78.07
2023-05-14T07:53:31.672Z,78.02
2023-05-14T07:56:00.987Z,76.94
2023-05-14T07:58:28.958Z,76.63
2023-05-14T08:00:57.687Z,76.26
2023-05-14T08:03:25.520Z,76.49
2023-05-14T08:05:53.371Z,75.86
2023-05-14T08:08:21.023Z,75.44
2023-05-14T08:10:48.698Z,75.15
2023-05-14T08:13:17.693Z,74.58
2023-05-14T08:15:45.662Z,72.82
2023-05-14T08:18:13.443Z,72.07
2023-05-14T08:20:41.303Z,72.54
2023-05-14T08:23:09.277Z,72.08
2023-05-14T08:25:36.976Z,71.81
2023-05-14T08:28:06.078Z,71.18
2023-05-14T08:30:35.103Z,70.33
2023-05-14T08:33:03.182Z,70.09
2023-05-14T08:35:31.109Z,69.29
2023-05-14T08:37:58.735Z,69.11
2023-05-14T08:40:27.398Z,68.33
2023-05-14T08:42:57.266Z,69.52
2023-05-14T08:45:31.527Z,69.66
2023-05-14T08:48:02.018Z,68.28
2023-05-14T08:50:31.147Z,69.34
2023-05-14T08:52:58.991Z,67.76
2023-05-14T08:55:29.104Z,65.50
2023-05-14T08:57:56.895Z,62.65
2023-05-14T09:00:27.570Z,61.37
2023-05-14T09:02:56.728Z,59.30
2023-05-14T09:05:25.902Z,58.16
2023-05-14T09:07:53.683Z,58.70
2023-05-14T09:10:22.276Z,57.61
2023-05-14T09:12:50.300Z,55.91
2023-05-14T09:15:18.206Z,55.16
2023-05-14T09:17:48.379Z,50.98
2023-05-14T09:20:16.556Z,48.54
2023-05-14T09:22:45.665Z,46.12
2023-05-14T09:25:13.289Z,44.78
2023-05-14T09:27:40.891Z,44.84
2023-05-14T09:30:11.065Z,46.16
2023-05-14T09:32:40.124Z,48.12
2023-05-14T09:35:20.630Z,44.35
2023-05-14T09:37:51.228Z,42.67
2023-05-14T09:40:20.740Z,38.81
2023-05-14T09:42:49.161Z,40.93
2023-05-14T09:45:17.328Z,39.02
2023-05-14T09:47:45.808Z,39.92
2023-05-14T09:50:13.852Z,39.90
2023-05-14T09:52:41.650Z,39.46
2023-05-14T09:55:11.182Z,38.77
2023-05-14T09:57:39.202Z,39.08
2023-05-14T10:00:09.489Z,39.15
2023-05-14T10:02:40.557Z,38.96
2023-05-14T10:05:09.633Z,36.50
2023-05-14T10:07:42.879Z,36.37
2023-05-14T10:10:17.150Z,35.58
2023-05-14T10:12:50.819Z,35.91
2023-05-14T10:15:21.761Z,36.48
2023-05-14T10:17:54.684Z,37.14
2023-05-14T10:20:24.677Z,36.40
2023-05-14T10:22:52.959Z,37.03
2023-05-14T10:25:22.651Z,37.21
2023-05-14T10:27:50.493Z,37.22
2023-05-14T10:30:22.943Z,36.40
2023-05-14T10:32:50.808Z,35.21
2023-05-14T10:35:20.610Z,35.32
2023-05-14T10:37:51.716Z,36.28
2023-05-14T10:40:19.650Z,35.97
2023-05-14T10:42:49.493Z,34.51
2023-05-14T10:45:17.622Z,34.63
2023-05-14T10:47:47.739Z,35.56
2023-05-14T10:50:17.446Z,35.86
2023-05-14T10:52:46.673Z,34.87
2023-05-14T10:55:16.215Z,33.50
2023-05-14T10:57:46.057Z,31.19
2023-05-14T11:00:16.221Z,32.32
2023-05-14T11:02:45.140Z,33.16
2023-05-14T11:05:16.069Z,33.29
2023-05-14T11:07:45.950Z,33.65
2023-05-14T11:10:15.678Z,34.20
2023-05-14T11:12:45.037Z,34.32
2023-05-14T11:15:17.078Z,34.28
2023-05-14T11:17:46.125Z,34.33
2023-05-14T11:20:14.782Z,33.96
2023-05-14T11:22:44.076Z,34.59
2023-05-14T11:25:14.704Z,35.39
2023-05-14T11:27:45.451Z,35.21
2023-05-14T11:30:15.905Z,35.51
2023-05-14T11:32:45.837Z,35.46
2023-05-14T11:35:13.940Z,34.86
2023-05-14T11:37:41.909Z,34.89
2023-05-14T11:40:16.230Z,34.50
2023-05-14T11:42:43.999Z,35.33
2023-05-14T11:45:13.068Z,35.25
2023-05-14T11:47:43.386Z,35.16
2023-05-14T11:50:11.757Z,36.18
2023-05-14T11:52:41.407Z,36.94
2023-05-14T11:55:12.906Z,37.15
2023-05-14T11:57:41.891Z,35.66
2023-05-14T12:00:13.463Z,36.03
2023-05-14T12:02:41.497Z,35.99
2023-05-14T12:05:14.048Z,34.78
2023-05-14T12:07:41.970Z,35.64
2023-05-14T12:10:12.813Z,34.58
2023-05-14T12:12:40.449Z,34.78
2023-05-14T12:15:12.692Z,35.26
2023-05-14T12:17:40.649Z,35.60
2023-05-14T12:20:12.500Z,35.42
2023-05-14T12:22:42.376Z,35.00
2023-05-14T12:25:13.494Z,35.05
2023-05-14T12:27:41.687Z,34.34
2023-05-14T12:32:41.711Z,35.36
2023-05-14T12:35:11.407Z,35.88
2023-05-14T12:37:39.946Z,36.43
2023-05-14T12:40:09.658Z,35.12
2023-05-14T12:42:37.558Z,34.91
2023-05-14T12:45:08.440Z,35.44
2023-05-14T12:47:36.780Z,35.74
2023-05-14T12:50:05.033Z,36.04
2023-05-14T12:52:38.742Z,36.82
2023-05-14T12:55:07.999Z,37.44
2023-05-14T12:57:35.962Z,37.72
2023-05-14T13:00:06.993Z,38.29
2023-05-14T13:02:42.873Z,38.04
2023-05-14T13:05:12.002Z,38.64
2023-05-14T13:07:41.096Z,38.15
2023-05-14T13:10:09.916Z,38.17
2023-05-14T13:12:38.665Z,38.07
2023-05-14T13:15:07.227Z,36.54
2023-05-14T13:17:34.912Z,36.93
2023-05-14T13:20:02.532Z,37.32
2023-05-14T13:22:30.703Z,37.75
2023-05-14T13:24:59.870Z,37.35
2023-05-14T13:27:27.820Z,36.52
2023-05-14T13:29:55.526Z,36.05
2023-05-14T13:32:23.504Z,35.86
2023-05-14T13:34:51.206Z,36.13
2023-05-14T13:37:18.832Z,35.75
2023-05-14T13:39:46.397Z,36.08
2023-05-14T13:42:15.344Z,36.67
2023-05-14T13:44:42.917Z,36.30
2023-05-14T13:47:11.520Z,36.42
2023-05-14T13:49:40.354Z,36.92
2023-05-14T13:52:08.139Z,37.86
2023-05-14T13:54:35.798Z,37.23
2023-05-14T13:57:03.407Z,36.95
2023-05-14T13:59:32.370Z,36.49
2023-05-14T14:02:00.085Z,36.74
2023-05-14T14:04:29.028Z,37.40
2023-05-14T14:06:56.737Z,37.32
2023-05-14T14:09:24.653Z,37.55
2023-05-14T14:11:52.765Z,37.71
2023-05-14T14:14:20.518Z,37.30
2023-05-14T14:16:49.443Z,36.10
2023-05-14T14:19:18.515Z,35.98
2023-05-14T14:21:46.435Z,35.40
2023-05-14T14:24:14.102Z,34.07
2023-05-14T14:26:41.763Z,34.18
2023-05-14T14:29:09.430Z,34.24
2023-05-14T14:31:37.246Z,34.04
2023-05-14T14:34:06.355Z,34.06
2023-05-14T14:36:33.991Z,34.35
2023-05-14T14:39:01.678Z,32.55
2023-05-14T14:41:29.339Z,32.40
2023-05-14T14:43:57.455Z,32.46
2023-05-14T14:46:25.140Z,32.37
2023-05-14T14:48:52.818Z,32.40
2023-05-14T14:51:21.814Z,31.76
2023-05-14T14:53:49.447Z,32.37
2023-05-14T14:56:17.152Z,32.15
2023-05-14T14:58:45.400Z,31.02
2023-05-14T15:01:13.116Z,31.14
2023-05-14T15:03:41.117Z,31.37
2023-05-14T15:06:09.189Z,31.17
2023-05-14T15:08:38.245Z,31.63
2023-05-14T15:11:07.213Z,32.53
2023-05-14T15:13:35.205Z,32.35
2023-05-14T15:16:03.039Z,32.09
2023-05-14T15:18:30.663Z,31.70
2023-05-14T15:20:58.371Z,31.77
2023-05-14T15:23:26.010Z,32.57
2023-05-14T15:25:55.046Z,33.46
2023-05-14T15:28:22.660Z,34.03
2023-05-14T15:30:50.315Z,33.85
2023-05-14T15:33:19.338Z,34.52
2023-05-14T15:35:47.448Z,34.68
2023-05-14T15:38:15.253Z,35.43
2023-05-14T15:40:42.931Z,35.30
2023-05-14T15:43:12.586Z,35.78
2023-05-14T15:45:40.215Z,35.94
2023-05-14T15:48:07.938Z,35.87
2023-05-14T15:50:35.615Z,34.97
2023-05-14T15:53:03.286Z,36.07
2023-05-14T15:55:30.956Z,35.46
2023-05-14T15:57:58.594Z,35.18
2023-05-14T16:00:27.681Z,35.36
2023-05-14T16:02:55.394Z,35.87
2023-05-14T16:05:23.077Z,35.89
2023-05-14T16:07:50.906Z,36.45
2023-05-14T16:10:19.408Z,36.23
2023-05-14T16:12:47.024Z,36.29
2023-05-14T16:15:15.004Z,36.97
2023-05-14T16:17:44.144Z,37.13
2023-05-14T16:20:13.244Z,36.95
2023-05-14T16:22:40.920Z,37.66
2023-05-14T16:25:09.134Z,37.52
2023-05-14T16:27:36.911Z,37.19
2023-05-14T16:30:05.384Z,37.35
2023-05-14T16:32:33.768Z,37.83
2023-05-14T16:35:02.972Z,38.82
2023-05-14T16:37:30.682Z,38.88
2023-05-14T16:39:58.315Z,38.87
2023-05-14T16:42:26.245Z,38.71
2023-05-14T16:44:54.117Z,38.82
2023-05-14T16:47:21.800Z,38.98
2023-05-14T16:49:49.519Z,39.02
2023-05-14T16:52:18.611Z,38.71
2023-05-14T16:54:46.372Z,38.93
2023-05-14T16:57:14.043Z,40.07
2023-05-14T16:59:41.647Z,39.45
2023-05-14T17:02:09.957Z,39.53
2023-05-14T17:04:38.828Z,39.58
2023-05-14T17:07:06.747Z,39.27
2023-05-14T17:09:35.866Z,39.58
2023-05-14T17:12:04.081Z,40.33
2023-05-14T17:14:31.956Z,39.92
2023-05-14T17:16:59.617Z,40.34
2023-05-14T17:19:27.272Z,41.09
2023-05-14T17:21:54.881Z,41.32
2023-05-14T17:24:22.489Z,41.12
2023-05-14T17:26:51.537Z,41.98
2023-05-14T17:29:19.195Z,41.50
2023-05-14T17:31:48.275Z,41.95
2023-05-14T17:34:17.695Z,42.01
2023-05-14T17:36:45.416Z,41.82
2023-05-14T17:39:13.012Z,41.90
2023-05-14T17:41:42.039Z,42.37
2023-05-14T17:44:12.931Z,42.67
2023-05-14T17:46:41.832Z,42.47
2023-05-14T17:49:09.558Z,43.52
2023-05-14T17:51:37.157Z,43.22
2023-05-14T17:54:05.088Z,44.34
2023-05-14T17:56:32.935Z,44.08
2023-05-14T17:59:01.354Z,44.35
2023-05-14T18:01:30.753Z,43.88
2023-05-14T18:03:58.587Z,45.08
2023-05-14T18:06:26.312Z,44.99
2023-05-14T18:08:53.970Z,45.35
2023-05-14T18:11:21.646Z,45.38
2023-05-14T18:13:49.310Z,45.55
2023-05-14T18:16:17.017Z,46.19
2023-05-14T18:18:46.103Z,45.75
2023-05-14T18:21:13.791Z,46.62
2023-05-14T18:23:41.412Z,47.36
2023-05-14T18:26:09.091Z,47.87
2023-05-14T18:28:37.910Z,48.12
2023-05-14T18:31:05.767Z,47.93
2023-05-14T18:33:33.679Z,48.35
2023-05-14T18:36:02.735Z,49.20
2023-05-14T18:38:30.342Z,49.38
2023-05-14T18:40:57.973Z,49.88
2023-05-14T18:43:26.217Z,50.10
2023-05-14T18:45:54.779Z,50.43
2023-05-14T18:48:23.032Z,50.77
2023-05-14T18:50:51.120Z,51.13
2023-05-14T18:53:20.071Z,51.67
2023-05-14T18:55:47.762Z,52.42
2023-05-14T18:58:15.454Z,53.10
2023-05-14T19:00:43.338Z,53.57
2023-05-14T19:03:11.111Z,53.42
2023-05-14T19:05:39.688Z,53.84
2023-05-14T19:08:07.585Z,54.48
2023-05-14T19:10:36.634Z,54.65
2023-05-14T19:13:04.380Z,55.03
2023-05-14T19:15:32.385Z,54.71
2023-05-14T19:18:00.134Z,54.45
2023-05-14T19:20:28.137Z,54.20
2023-05-14T19:22:55.820Z,53.63
2023-05-14T19:25:23.852Z,53.13
2023-05-14T19:27:55.233Z,53.34
2023-05-14T19:30:23.446Z,53.70
2023-05-14T19:32:51.456Z,52.91
2023-05-14T19:35:19.165Z,52.82
2023-05-14T19:37:47.355Z,52.96
2023-05-14T19:40:15.156Z,52.86
2023-05-14T19:42:42.851Z,52.58
2023-05-14T19:45:12.682Z,51.71
2023-05-14T19:47:40.564Z,51.55
2023-05-14T19:50:09.102Z,51.75
2023-05-14T19:52:36.873Z,51.55
2023-05-14T19:55:04.894Z,51.90
2023-05-14T19:57:32.604Z,51.89
2023-05-14T20:00:00.403Z,51.84
2023-05-14T20:02:29.644Z,51.91
2023-05-14T20:04:57.950Z,51.95
2023-05-14T20:07:25.961Z,52.10
2023-05-14T20:09:53.877Z,52.08
2023-05-14T20:12:21.774Z,52.12
2023-05-14T20:14:49.655Z,52.22
2023-05-14T20:17:17.876Z,52.51
2023-05-14T20:19:46.938Z,52.61
2023-05-14T20:22:15.058Z,52.88
2023-05-14T20:24:42.919Z,52.85
2023-05-14T20:27:10.677Z,53.47
2023-05-14T20:29:38.492Z,54.59
2023-05-14T20:32:07.154Z,54.85
2023-05-14T20:34:34.870Z,55.24
2023-05-14T20:37:05.140Z,56.20
2023-05-14T20:39:32.887Z,57.17
2023-05-14T20:42:00.753Z,57.51
2023-05-14T20:44:28.468Z,57.96
2023-05-14T20:46:56.220Z,58.61
2023-05-14T20:49:23.891Z,59.39
2023-05-14T20:51:51.765Z,59.62
2023-05-14T20:54:20.884Z,59.75
2023-05-14T20:56:48.666Z,60.13
2023-05-14T20:59:16.428Z,60.93
2023-05-14T21:01:44.267Z,61.37
2023-05-14T21:04:12.390Z,61.49
2023-05-14T21:06:40.131Z,62.06
2023-05-14T21:09:07.820Z,62.08
2023-05-14T21:11:36.893Z,62.42
2023-05-14T21:14:05.863Z,63.25
2023-05-14T21:16:34.050Z,63.69
2023-05-14T21:19:02.322Z,64.17
2023-05-14T21:21:30.104Z,64.42
2023-05-14T21:23:57.790Z,64.79
2023-05-14T21:26:26.907Z,64.81
2023-05-14T21:28:55.987Z,65.18
2023-05-14T21:31:23.773Z,65.41
2023-05-14T21:33:51.529Z,66.23
2023-05-14T21:36:20.459Z,66.84
2023-05-14T21:38:48.128Z,66.90
2023-05-14T21:41:16.385Z,66.52
2023-05-14T21:43:45.191Z,66.14
2023-05-14T21:46:14.463Z,66.86
2023-05-14T21:48:42.318Z,66.63
2023-05-14T21:51:10.384Z,67.17
2023-05-14T21:53:38.209Z,67.16
2023-05-14T21:56:08.184Z,67.25
2023-05-14T21:58:36.532Z,67.26
2023-05-14T22:01:04.334Z,67.58
2023-05-14T22:03:33.501Z,67.89
2023-05-14T22:06:01.659Z,68.54
2023-05-14T22:08:30.719Z,69.13
2023-05-14T22:10:59.152Z,69.34
2023-05-14T22:13:27.048Z,70.26
2023-05-14T22:16:01.471Z,70.27
2023-05-14T22:18:38.943Z,70.12
2023-05-14T22:21:07.238Z,69.97
2023-05-14T22:23:35.175Z,69.93
2023-05-14T22:26:03.157Z,70.35
2023-05-14T22:28:31.276Z,71.18
2023-05-14T22:30:59.725Z,71.37
2023-05-14T22:33:27.797Z,71.55
2023-05-14T22:35:57.192Z,71.80
2023-05-14T22:38:25.226Z,71.56
2023-05-14T22:40:53.083Z,71.96
2023-05-14T22:43:20.952Z,72.26
2023-05-14T22:45:48.750Z,73.04
2023-05-14T22:48:16.684Z,73.55
2023-05-14T22:50:44.437Z,73.80
2023-05-14T22:53:13.812Z,73.96
2023-05-14T22:55:41.536Z,74.59
2023-05-14T22:58:09.302Z,75.06
2023-05-14T23:00:37.358Z,74.89
2023-05-14T23:03:05.195Z,74.15
2023-05-14T23:05:33.299Z,74.10
2023-05-14T23:08:01.119Z,74.55
2023-05-14T23:10:30.382Z,74.64
2023-05-14T23:12:58.230Z,74.99
2023-05-14T23:15:26.412Z,75.62
2023-05-14T23:17:54.387Z,75.94
2023-05-14T23:20:22.207Z,75.84
2023-05-14T23:22:50.003Z,76.27
2023-05-14T23:25:17.724Z,76.33
2023-05-14T23:27:47.067Z,76.38
2023-05-14T23:30:15.102Z,76.37
2023-05-14T23:32:43.006Z,76.59
2023-05-14T23:35:11.501Z,77.33
2023-05-14T23:37:42.965Z,77.30
2023-05-14T23:40:11.165Z,77.67
2023-05-14T23:42:38.898Z,78.85
2023-05-14T23:45:09.369Z,80.05
2023-05-14T23:47:37.213Z,80.26
2023-05-14T23:50:05.494Z,80.76
2023-05-14T23:52:34.448Z,81.02
2023-05-14T23:55:02.154Z,81.27
2023-05-14T23:57:29.918Z,81.83
2023-05-14T23:59:57.573Z,82.02
